Time;durP1;ratioP1;P1;durP2;ratioP2;P2;SDS_P1;SDS_P2;PMS_P1;PMS_P2;Temp;Humidity;BMP_temperature;BMP_pressure;BME280_temperature;BME280_humidity;BME280_pressure;Samples;Min_cycle;Max_cycle;Signal;HPM_P1;HPM_P2
2021/12/21 00:00:43;;;;;;;39.63;24.23;;;-1.80;99.90;;;;;;5002101;28;20174;-83
2021/12/21 00:03:12;;;;;;;40.65;24.92;;;-1.80;99.90;;;;;;5016101;28;20053;-83
2021/12/21 00:05:39;;;;;;;42.97;25.73;;;-1.80;99.90;;;;;;5017120;28;20033;-83
2021/12/21 00:08:08;;;;;;;41.65;23.55;;;-1.80;99.90;;;;;;5015667;28;20415;-83
2021/12/21 00:10:34;;;;;;;38.83;24.02;;;-1.90;99.90;;;;;;4998493;28;20037;-83
2021/12/21 00:13:02;;;;;;;34.47;22.27;;;-1.80;99.90;;;;;;5002697;28;20386;-83
2021/12/21 00:18:36;;;;;;;41.53;25.75;;;-1.90;99.90;;;;;;5016932;28;20478;-83
2021/12/21 00:21:19;;;;;;;40.25;26.45;;;-1.80;99.90;;;;;;5016313;28;20185;-83
2021/12/21 00:23:48;;;;;;;42.40;26.02;;;-1.90;99.90;;;;;;5031492;28;20410;-83
2021/12/21 00:26:17;;;;;;;41.63;26.48;;;-1.90;99.90;;;;;;5017756;28;20052;-83
2021/12/21 00:29:00;;;;;;;42.03;26.05;;;-1.80;99.90;;;;;;5017750;28;20029;-83
2021/12/21 00:31:31;;;;;;;43.00;25.35;;;-1.90;99.90;;;;;;4992373;28;20052;-83
2021/12/21 00:33:57;;;;;;;42.78;27.58;;;-1.90;99.90;;;;;;5015735;28;20056;-83
2021/12/21 00:36:24;;;;;;;39.00;25.95;;;-1.80;99.90;;;;;;5015801;28;20041;-83
2021/12/21 00:38:55;;;;;;;36.10;24.50;;;-1.80;99.90;;;;;;5001600;28;20047;-83
2021/12/21 00:41:21;;;;;;;40.95;24.83;;;-2.00;99.90;;;;;;5002048;28;20469;-83
2021/12/21 00:43:48;;;;;;;39.10;25.83;;;-1.90;99.90;;;;;;5017244;28;20099;-83
2021/12/21 00:46:14;;;;;;;39.13;24.20;;;-1.90;99.90;;;;;;4998808;28;20037;-83
2021/12/21 00:48:48;;;;;;;47.20;28.45;;;-1.90;99.90;;;;;;5017834;28;20045;-83
2021/12/21 00:51:15;;;;;;;42.80;26.70;;;-2.00;99.90;;;;;;5016862;28;20037;-83
2021/12/21 00:53:40;;;;;;;42.72;25.30;;;-2.00;99.90;;;;;;4998590;28;20045;-84
2021/12/21 00:56:07;;;;;;;35.60;24.85;;;-2.10;99.90;;;;;;5013589;28;20056;-83
2021/12/21 00:58:33;;;;;;;38.85;25.08;;;-2.00;99.90;;;;;;5000284;28;20404;-83
2021/12/21 01:01:05;;;;;;;36.70;23.27;;;-2.00;99.90;;;;;;5014082;28;20061;-83
2021/12/21 01:03:33;;;;;;;36.80;23.45;;;-2.00;99.90;;;;;;5017699;28;20038;-83
2021/12/21 01:06:11;;;;;;;37.78;22.83;;;-2.00;99.90;;;;;;4998725;28;20071;-83
2021/12/21 01:09:28;;;;;;;36.75;23.00;;;-2.00;99.90;;;;;;5014539;28;20049;-83
2021/12/21 01:11:44;;;;;;;36.88;20.20;;;-2.00;99.90;;;;;;5013561;28;20136;-83
2021/12/21 01:19:38;;;;;;;25.27;16.38;;;-2.10;99.90;;;;;;5014034;28;20103;-83
2021/12/21 01:22:17;;;;;;;24.30;14.18;;;-2.10;99.90;;;;;;5011328;28;20460;-83
2021/12/21 01:27:32;;;;;;;21.92;12.95;;;-2.10;99.90;;;;;;5030120;28;20059;-82
2021/12/21 01:30:15;;;;;;;20.25;13.38;;;-2.20;99.90;;;;;;5016501;28;20049;-83
2021/12/21 01:33:05;;;;;;;24.55;14.13;;;-2.10;99.90;;;;;;5016498;28;20056;-83
2021/12/21 01:35:38;;;;;;;23.25;14.00;;;-2.10;99.90;;;;;;5000269;28;20037;-83
2021/12/21 01:38:26;;;;;;;21.80;11.32;;;-2.20;99.90;;;;;;4995937;28;20037;-83
2021/12/21 01:41:01;;;;;;;15.40;11.13;;;-2.20;99.90;;;;;;5002435;28;20041;-83
2021/12/21 01:51:28;;;;;;;24.00;14.60;;;-2.30;99.90;;;;;;5015734;28;20124;-83
2021/12/21 01:53:54;;;;;;;27.38;16.65;;;-2.10;99.90;;;;;;5000861;28;20186;-83
2021/12/21 01:56:21;;;;;;;23.15;14.02;;;-2.10;99.90;;;;;;5015564;28;20084;-83
2021/12/21 01:58:47;;;;;;;17.98;11.75;;;-2.10;99.90;;;;;;4999338;28;20129;-83
2021/12/21 02:01:17;;;;;;;19.90;11.90;;;-2.20;99.90;;;;;;5013219;28;20033;-83
2021/12/21 02:03:47;;;;;;;22.83;13.10;;;-2.10;99.90;;;;;;4995354;28;20056;-83
2021/12/21 02:06:18;;;;;;;20.90;11.35;;;-2.10;99.90;;;;;;4997166;28;20136;-83
2021/12/21 02:08:45;;;;;;;22.13;11.82;;;-2.10;99.90;;;;;;4997712;28;20038;-83
2021/12/21 02:11:11;;;;;;;17.63;10.50;;;-2.10;99.90;;;;;;5013403;28;20492;-83
2021/12/21 02:13:38;;;;;;;21.40;11.57;;;-2.10;99.90;;;;;;4997204;28;20073;-82
2021/12/21 02:16:05;;;;;;;17.35;11.60;;;-2.20;99.90;;;;;;5003197;28;20032;-83
2021/12/21 02:19:01;;;;;;;30.70;15.07;;;-2.20;99.90;;;;;;5014057;28;20092;-83
2021/12/21 02:24:04;;;;;;;19.23;11.95;;;-2.20;99.90;;;;;;5015700;28;20294;-82
2021/12/21 02:29:24;;;;;;;19.88;11.98;;;-2.30;99.90;;;;;;5018832;28;20037;-83
2021/12/21 02:31:51;;;;;;;17.92;11.50;;;-2.20;99.90;;;;;;5004543;28;20095;-83
2021/12/21 02:34:18;;;;;;;23.67;13.40;;;-2.30;99.90;;;;;;5020277;28;20119;-82
2021/12/21 02:36:46;;;;;;;29.23;16.48;;;-2.30;99.90;;;;;;5019081;28;21165;-83
2021/12/21 02:39:16;;;;;;;25.10;13.73;;;-2.20;99.90;;;;;;5010628;28;20040;-82
2021/12/21 02:41:44;;;;;;;17.92;10.80;;;-2.30;99.90;;;;;;5005388;28;20039;-82
2021/12/21 02:44:11;;;;;;;22.17;14.40;;;-2.30;99.90;;;;;;5019725;28;20575;-82
2021/12/21 02:46:39;;;;;;;20.83;14.27;;;-2.30;99.90;;;;;;5008561;28;20475;-83
2021/12/21 02:49:06;;;;;;;21.35;11.80;;;-2.20;99.90;;;;;;5002766;28;20191;-83
2021/12/21 02:51:32;;;;;;;22.90;12.43;;;-2.30;99.90;;;;;;5013993;28;20034;-83
2021/12/21 02:53:58;;;;;;;19.80;11.93;;;-2.30;99.90;;;;;;5003851;28;20042;-83
2021/12/21 02:56:24;;;;;;;20.23;11.80;;;-2.40;99.90;;;;;;5001600;28;20060;-83
2021/12/21 02:58:50;;;;;;;16.67;11.35;;;-2.30;99.90;;;;;;5004490;28;20038;-83
2021/12/21 03:01:16;;;;;;;18.40;11.20;;;-2.40;99.90;;;;;;5006344;28;20603;-82
2021/12/21 03:03:42;;;;;;;16.95;12.18;;;-2.40;99.90;;;;;;5023128;28;20156;-83
2021/12/21 03:06:16;;;;;;;21.98;13.30;;;-2.40;99.90;;;;;;4996948;28;20050;-82
2021/12/21 03:08:45;;;;;;;19.27;12.85;;;-2.40;99.90;;;;;;5033629;28;20412;-82
2021/12/21 03:11:18;;;;;;;20.23;11.88;;;-2.40;99.90;;;;;;5000940;28;20128;-82
2021/12/21 03:16:28;;;;;;;19.60;12.98;;;-2.30;99.90;;;;;;5021191;28;20037;-82
2021/12/21 03:18:56;;;;;;;21.83;12.02;;;-2.30;99.90;;;;;;5016518;28;20099;-82
2021/12/21 03:21:21;;;;;;;27.52;14.30;;;-2.30;99.90;;;;;;5000068;28;20042;-83
2021/12/21 03:23:47;;;;;;;22.55;13.40;;;-2.50;99.90;;;;;;5002569;28;20111;-83
2021/12/21 03:26:12;;;;;;;24.90;14.23;;;-2.50;99.90;;;;;;5001702;28;20045;-82
2021/12/21 03:28:38;;;;;;;24.20;14.25;;;-2.50;99.90;;;;;;4999773;28;20037;-82
2021/12/21 03:31:05;;;;;;;20.13;13.02;;;-2.40;99.90;;;;;;5002454;28;20471;-83
2021/12/21 03:33:30;;;;;;;18.52;12.02;;;-2.50;99.90;;;;;;5002184;28;20048;-82
2021/12/21 03:35:56;;;;;;;23.38;14.25;;;-2.50;99.90;;;;;;4999885;28;20030;-82
2021/12/21 03:38:22;;;;;;;23.17;14.48;;;-2.50;99.90;;;;;;5000817;28;20077;-83
2021/12/21 03:40:47;;;;;;;20.25;13.43;;;-2.50;99.90;;;;;;5015460;28;20118;-83
2021/12/21 03:43:13;;;;;;;20.63;14.02;;;-2.60;99.90;;;;;;5018118;28;20447;-83
2021/12/21 03:45:46;;;;;;;21.08;13.65;;;-2.60;99.90;;;;;;4999850;28;20088;-83
2021/12/21 03:48:14;;;;;;;25.60;14.63;;;-2.50;99.90;;;;;;5002799;28;20041;-83
2021/12/21 03:50:40;;;;;;;22.30;13.85;;;-2.60;99.90;;;;;;5033713;28;20092;-83
2021/12/21 03:53:06;;;;;;;21.73;12.90;;;-2.60;99.90;;;;;;5000316;28;20413;-83
2021/12/21 03:55:32;;;;;;;22.42;13.63;;;-2.70;99.90;;;;;;5003461;28;20129;-82
2021/12/21 03:57:57;;;;;;;20.88;13.90;;;-2.60;99.90;;;;;;5002384;28;20072;-83
2021/12/21 04:00:26;;;;;;;23.73;13.75;;;-2.70;99.90;;;;;;5002332;28;20224;-82
2021/12/21 04:02:52;;;;;;;27.05;13.88;;;-2.70;99.90;;;;;;5018543;28;20042;-83
2021/12/21 04:05:21;;;;;;;18.50;12.15;;;-2.70;99.90;;;;;;5004578;28;20430;-82
2021/12/21 04:07:47;;;;;;;21.35;13.23;;;-2.60;99.90;;;;;;5000607;28;20036;-82
2021/12/21 04:10:13;;;;;;;25.10;15.45;;;-2.70;99.90;;;;;;4999638;28;20418;-82
2021/12/21 04:12:38;;;;;;;20.73;13.55;;;-2.60;99.90;;;;;;5001532;28;20137;-83
2021/12/21 04:15:06;;;;;;;22.05;12.63;;;-2.60;99.90;;;;;;5004077;28;20041;-82
2021/12/21 04:17:35;;;;;;;21.02;13.45;;;-2.60;99.90;;;;;;5034912;28;20068;-82
2021/12/21 04:20:01;;;;;;;20.50;13.25;;;-2.70;99.90;;;;;;5001738;28;20179;-82
2021/12/21 04:22:28;;;;;;;27.23;14.25;;;-2.70;99.90;;;;;;5016234;28;20033;-82
2021/12/21 04:24:53;;;;;;;27.60;13.48;;;-2.60;99.90;;;;;;5003139;28;20373;-82
2021/12/21 04:27:19;;;;;;;21.58;13.77;;;-2.60;99.90;;;;;;5003086;28;20102;-83
2021/12/21 04:29:45;;;;;;;21.83;12.93;;;-2.60;99.90;;;;;;5037703;28;20041;-83
2021/12/21 04:32:11;;;;;;;22.73;12.18;;;-2.60;99.90;;;;;;5015635;28;20124;-82
2021/12/21 04:34:38;;;;;;;22.48;12.88;;;-2.70;99.90;;;;;;5001114;28;20041;-83
2021/12/21 04:37:05;;;;;;;25.85;12.90;;;-2.60;99.90;;;;;;4999717;28;20489;-83
2021/12/21 04:39:44;;;;;;;18.80;11.85;;;-2.60;99.90;;;;;;5004866;28;20038;-83
2021/12/21 04:42:10;;;;;;;18.95;11.80;;;-2.60;99.90;;;;;;5002755;28;20480;-82
2021/12/21 04:44:35;;;;;;;22.77;11.80;;;-2.70;99.90;;;;;;5002856;28;20034;-82
2021/12/21 04:47:01;;;;;;;17.52;11.48;;;-2.70;99.90;;;;;;5001641;28;20034;-82
2021/12/21 04:49:27;;;;;;;17.98;11.95;;;-2.70;99.90;;;;;;5017185;28;20077;-83
2021/12/21 04:51:53;;;;;;;17.27;11.65;;;-2.80;99.90;;;;;;4999286;28;20567;-83
2021/12/21 04:54:19;;;;;;;20.75;13.20;;;-2.70;99.90;;;;;;5000543;28;20037;-82
2021/12/21 04:56:45;;;;;;;21.10;12.43;;;-2.80;99.90;;;;;;5000894;28;20256;-83
2021/12/21 04:59:11;;;;;;;16.85;11.05;;;-2.70;99.90;;;;;;5032052;28;20092;-83
2021/12/21 05:01:36;;;;;;;19.27;12.80;;;-2.80;99.90;;;;;;5034154;28;20065;-83
2021/12/21 05:04:02;;;;;;;18.33;12.07;;;-2.80;99.90;;;;;;5035589;28;20037;-82
2021/12/21 05:06:28;;;;;;;19.75;12.32;;;-2.80;99.90;;;;;;5000663;28;20033;-83
2021/12/21 05:09:06;;;;;;;16.27;11.38;;;-2.80;99.90;;;;;;5029951;28;20711;-83
2021/12/21 05:11:35;;;;;;;23.98;12.10;;;-2.80;99.90;;;;;;5027277;28;21540;-82
2021/12/21 05:14:01;;;;;;;20.23;13.25;;;-2.80;99.90;;;;;;4998537;28;20049;-82
2021/12/21 05:16:26;;;;;;;22.77;13.80;;;-2.80;99.90;;;;;;4990543;28;20041;-83
2021/12/21 05:18:52;;;;;;;18.27;12.60;;;-2.70;99.90;;;;;;5001244;28;20115;-81
2021/12/21 05:21:20;;;;;;;17.88;11.80;;;-2.80;99.90;;;;;;5000036;28;20124;-83
2021/12/21 05:23:45;;;;;;;20.75;12.63;;;-2.70;99.90;;;;;;5016528;28;20045;-82
2021/12/21 05:26:11;;;;;;;18.67;11.88;;;-2.80;99.90;;;;;;5017151;28;20511;-82
2021/12/21 05:28:37;;;;;;;18.48;11.07;;;-2.70;99.90;;;;;;5000889;28;20112;-83
2021/12/21 05:31:02;;;;;;;18.27;10.77;;;-2.70;99.90;;;;;;4999964;28;20119;-82
2021/12/21 05:33:29;;;;;;;21.25;11.98;;;-2.80;99.90;;;;;;5003231;28;20408;-82
2021/12/21 05:35:56;;;;;;;20.63;12.23;;;-2.80;99.90;;;;;;5032663;28;20038;-83
2021/12/21 05:38:29;;;;;;;18.55;11.57;;;-2.80;99.90;;;;;;5016338;28;20109;-82
2021/12/21 05:40:59;;;;;;;18.52;11.50;;;-2.90;99.90;;;;;;5031440;28;20417;-82
2021/12/21 05:43:25;;;;;;;21.83;12.40;;;-2.80;99.90;;;;;;5002619;28;20029;-82
2021/12/21 05:45:51;;;;;;;15.23;11.35;;;-2.90;99.90;;;;;;5031444;28;20099;-82
2021/12/21 05:48:16;;;;;;;18.63;11.43;;;-2.80;99.90;;;;;;5014416;28;20049;-82
2021/12/21 05:50:42;;;;;;;17.60;11.80;;;-2.80;99.90;;;;;;5001770;28;20064;-83
2021/12/21 05:53:08;;;;;;;21.63;12.23;;;-2.90;99.90;;;;;;5019187;28;20037;-82
2021/12/21 05:55:34;;;;;;;21.77;12.77;;;-2.80;99.90;;;;;;5006378;28;20354;-82
2021/12/21 05:57:59;;;;;;;15.88;11.52;;;-2.80;99.90;;;;;;5039827;28;20099;-82
2021/12/21 06:00:29;;;;;;;19.92;11.32;;;-2.90;99.90;;;;;;5032778;28;20110;-82
2021/12/21 06:02:55;;;;;;;17.52;12.07;;;-2.80;99.90;;;;;;5003046;28;20118;-82
2021/12/21 06:05:21;;;;;;;22.13;12.73;;;-2.90;99.90;;;;;;5020409;28;20080;-82
2021/12/21 06:07:50;;;;;;;21.17;12.13;;;-2.80;99.90;;;;;;5018464;28;20061;-82
2021/12/21 06:10:23;;;;;;;18.38;12.18;;;-2.90;99.90;;;;;;5004919;28;20278;-82
2021/12/21 06:25:57;;;;;;;19.70;11.30;;;-2.80;99.90;;;;;;5017602;28;20042;-82
2021/12/21 06:28:23;;;;;;;20.30;12.45;;;-2.80;99.90;;;;;;5036164;28;20561;-82
2021/12/21 06:30:49;;;;;;;19.63;11.80;;;-2.90;99.90;;;;;;5004786;28;20040;-82
2021/12/21 06:33:15;;;;;;;21.08;12.30;;;-2.90;99.90;;;;;;5002702;28;20484;-83
2021/12/21 06:35:44;;;;;;;22.50;11.75;;;-2.90;99.90;;;;;;5008586;28;20124;-83
2021/12/21 06:38:10;;;;;;;25.13;16.75;;;-2.90;99.90;;;;;;5019898;28;20029;-82
2021/12/21 06:40:36;;;;;;;21.48;13.40;;;-2.90;99.90;;;;;;5001159;28;20113;-83
2021/12/21 06:43:03;;;;;;;24.38;14.73;;;-2.90;99.90;;;;;;5035134;28;20060;-82
2021/12/21 06:53:29;;;;;;;24.08;13.60;;;-3.00;99.90;;;;;;5018550;28;20050;-82
2021/12/21 06:55:55;;;;;;;22.48;13.57;;;-3.00;99.90;;;;;;4998753;28;20037;-82
2021/12/21 06:58:20;;;;;;;21.42;14.13;;;-3.00;99.90;;;;;;5018374;28;20041;-82
2021/12/21 07:00:49;;;;;;;18.98;13.10;;;-3.00;99.90;;;;;;5017543;28;20083;-83
2021/12/21 07:03:15;;;;;;;24.92;17.10;;;-3.00;99.90;;;;;;5017758;28;20456;-83
2021/12/21 07:05:41;;;;;;;23.75;14.80;;;-3.00;99.90;;;;;;5036560;28;20041;-82
2021/12/21 07:08:12;;;;;;;23.05;13.95;;;-2.90;99.90;;;;;;5003540;28;20393;-82
2021/12/21 07:10:39;;;;;;;19.08;13.13;;;-2.90;99.90;;;;;;5003524;28;20095;-82
2021/12/21 07:18:35;;;;;;;24.52;14.52;;;-2.90;99.90;;;;;;5017861;28;20041;-82
2021/12/21 07:21:04;;;;;;;26.85;14.57;;;-2.90;99.90;;;;;;5034720;28;20029;-82
2021/12/21 07:23:31;;;;;;;19.27;10.50;;;-3.00;99.90;;;;;;5020558;28;20107;-82
2021/12/21 07:25:56;;;;;;;17.38;11.52;;;-3.00;99.90;;;;;;4999747;28;20116;-82
2021/12/21 07:28:22;;;;;;;25.75;11.75;;;-2.90;99.90;;;;;;5000387;28;20128;-82
2021/12/21 07:30:49;;;;;;;19.00;11.90;;;-2.90;99.90;;;;;;5002119;28;20049;-82
2021/12/21 07:33:16;;;;;;;22.15;13.40;;;-2.90;99.90;;;;;;5012467;28;20060;-83
2021/12/21 07:35:43;;;;;;;21.52;13.82;;;-2.80;99.90;;;;;;4999943;28;20102;-83
2021/12/21 07:38:10;;;;;;;25.23;14.25;;;-2.90;99.90;;;;;;5017824;28;20037;-83
2021/12/21 07:40:36;;;;;;;23.05;14.50;;;-2.90;99.90;;;;;;5017043;28;20041;-82
2021/12/21 07:43:03;;;;;;;30.30;16.85;;;-2.90;99.90;;;;;;5018636;28;20485;-82
2021/12/21 07:45:29;;;;;;;27.15;16.23;;;-2.90;99.90;;;;;;5002029;28;20100;-82
2021/12/21 07:47:55;;;;;;;26.17;16.83;;;-2.80;99.90;;;;;;5002758;28;20037;-82
2021/12/21 07:50:24;;;;;;;28.75;16.90;;;-2.80;99.90;;;;;;5018649;28;20481;-82
2021/12/21 07:52:51;;;;;;;25.27;14.52;;;-2.80;99.90;;;;;;4997892;28;20121;-82
2021/12/21 07:55:17;;;;;;;28.70;15.88;;;-2.90;99.90;;;;;;5031344;28;20042;-82
2021/12/21 07:57:43;;;;;;;35.92;18.35;;;-2.80;99.90;;;;;;5016082;28;20106;-82
2021/12/21 08:00:14;;;;;;;37.85;17.60;;;-2.70;99.90;;;;;;5024612;28;20037;-82
2021/12/21 08:02:40;;;;;;;40.53;16.30;;;-2.70;99.90;;;;;;5035227;28;20424;-82
2021/12/21 08:05:08;;;;;;;33.20;16.58;;;-2.70;99.90;;;;;;5031582;28;20358;-82
2021/12/21 08:07:40;;;;;;;31.02;15.60;;;-2.70;99.90;;;;;;5032970;28;20116;-83
2021/12/21 08:10:20;;;;;;;33.15;15.93;;;-2.70;99.90;;;;;;5016006;28;20133;-82
2021/12/21 08:12:48;;;;;;;27.00;17.27;;;-2.70;99.90;;;;;;5010593;28;20046;-82
2021/12/21 08:15:14;;;;;;;31.58;18.05;;;-2.70;99.90;;;;;;5000520;28;20460;-81
2021/12/21 08:17:43;;;;;;;34.03;17.65;;;-2.60;99.90;;;;;;5001703;28;20029;-82
2021/12/21 08:20:08;;;;;;;29.30;18.10;;;-2.50;99.90;;;;;;5018385;28;20404;-82
2021/12/21 08:22:34;;;;;;;32.53;18.45;;;-2.60;99.90;;;;;;5001951;28;20037;-82
2021/12/21 08:25:00;;;;;;;30.92;17.83;;;-2.50;99.90;;;;;;5001725;28;20045;-82
2021/12/21 08:27:29;;;;;;;32.28;18.70;;;-2.60;99.90;;;;;;5003360;28;20052;-82
2021/12/21 08:29:54;;;;;;;34.30;17.38;;;-2.40;99.90;;;;;;5016606;28;20096;-82
2021/12/21 08:32:20;;;;;;;35.63;17.48;;;-2.40;99.90;;;;;;5002454;28;20041;-82
2021/12/21 08:34:46;;;;;;;29.10;17.10;;;-2.50;99.90;;;;;;5001045;28;20041;-82
2021/12/21 08:37:11;;;;;;;31.13;17.15;;;-2.30;99.90;;;;;;5000195;28;20104;-82
2021/12/21 08:39:39;;;;;;;27.17;17.40;;;-2.30;99.90;;;;;;5001880;28;20459;-82
2021/12/21 08:42:07;;;;;;;28.30;17.60;;;-2.30;99.90;;;;;;4998264;28;20618;-82
2021/12/21 08:44:33;;;;;;;32.50;18.88;;;-2.20;99.90;;;;;;4994901;28;20322;-82
2021/12/21 08:46:59;;;;;;;29.48;16.95;;;-2.20;99.90;;;;;;4998400;28;20300;-82
2021/12/21 08:49:26;;;;;;;32.60;18.88;;;-2.10;99.90;;;;;;5003175;28;20037;-82
2021/12/21 08:51:51;;;;;;;33.30;19.38;;;-2.00;99.90;;;;;;5013350;28;20893;-82
2021/12/21 08:54:20;;;;;;;34.95;20.50;;;-1.90;99.90;;;;;;5002488;28;20054;-81
2021/12/21 08:56:48;;;;;;;32.70;19.00;;;-1.90;99.90;;;;;;5016204;28;20397;-82
2021/12/21 08:59:15;;;;;;;41.22;22.02;;;-1.70;99.90;;;;;;5002033;28;20038;-82
2021/12/21 09:01:43;;;;;;;39.30;22.13;;;-1.70;99.90;;;;;;5017819;28;20087;-82
2021/12/21 09:04:09;;;;;;;35.40;20.98;;;-1.70;99.90;;;;;;5017465;28;20086;-82
2021/12/21 09:06:35;;;;;;;40.10;22.38;;;-1.60;99.90;;;;;;5015406;28;20410;-82
2021/12/21 09:09:01;;;;;;;37.58;21.38;;;-1.60;99.90;;;;;;5000298;28;20041;-82
2021/12/21 09:11:27;;;;;;;34.22;22.23;;;-1.50;99.90;;;;;;5032908;28;20183;-82
2021/12/21 09:13:53;;;;;;;40.50;23.60;;;-1.40;99.90;;;;;;5003572;28;20631;-82
2021/12/21 09:16:18;;;;;;;40.80;24.73;;;-1.20;99.90;;;;;;4991358;28;20038;-82
2021/12/21 09:18:45;;;;;;;41.58;22.83;;;-1.30;99.90;;;;;;5016136;28;20029;-82
2021/12/21 09:21:11;;;;;;;37.00;22.73;;;-1.20;99.90;;;;;;5031948;28;20157;-82
2021/12/21 09:23:36;;;;;;;40.00;23.40;;;-1.00;99.90;;;;;;5000018;28;20041;-82
2021/12/21 09:26:02;;;;;;;41.35;24.05;;;-0.90;99.90;;;;;;5030346;28;20038;-82
2021/12/21 09:28:28;;;;;;;44.58;24.77;;;-0.90;99.90;;;;;;5000618;28;20593;-82
2021/12/21 09:30:54;;;;;;;41.97;24.98;;;-0.90;99.90;;;;;;4996919;28;20084;-82
2021/12/21 09:33:19;;;;;;;54.35;27.13;;;-0.70;99.90;;;;;;5015404;28;20068;-82
2021/12/21 09:35:45;;;;;;;51.85;27.98;;;-0.60;99.90;;;;;;5012867;28;20573;-81
2021/12/21 09:38:11;;;;;;;49.33;28.00;;;-0.70;99.90;;;;;;4999285;28;20041;-81
2021/12/21 09:40:39;;;;;;;51.10;27.83;;;-0.50;99.90;;;;;;5008489;28;20064;-81
2021/12/21 09:43:08;;;;;;;54.35;28.83;;;-0.50;99.90;;;;;;5000936;28;20029;-81
2021/12/21 09:45:37;;;;;;;54.55;29.38;;;-0.30;99.90;;;;;;5005846;28;20369;-81
2021/12/21 09:48:04;;;;;;;49.75;27.63;;;-0.20;99.90;;;;;;5017649;28;20088;-81
2021/12/21 09:50:31;;;;;;;39.38;24.52;;;-0.30;99.90;;;;;;5001891;28;20041;-82
2021/12/21 09:52:57;;;;;;;37.65;22.33;;;-0.10;99.90;;;;;;5012448;28;20063;-81
2021/12/21 09:55:23;;;;;;;41.38;21.77;;;-0.10;99.90;;;;;;5001592;28;20425;-82
2021/12/21 09:57:51;;;;;;;40.20;20.63;;;-0.10;99.90;;;;;;4992956;28;20525;-82
2021/12/21 10:00:20;;;;;;;33.33;19.08;;;0.20;99.90;;;;;;5017186;28;20042;-82
2021/12/21 10:02:47;;;;;;;33.20;19.20;;;0.20;99.90;;;;;;5000044;28;20095;-81
2021/12/21 10:05:20;;;;;;;31.23;17.80;;;0.30;99.90;;;;;;5033177;28;20393;-81
2021/12/21 10:08:01;;;;;;;32.65;18.42;;;0.50;99.90;;;;;;5015552;28;20073;-82
2021/12/21 10:10:32;;;;;;;34.60;20.35;;;0.50;99.90;;;;;;5016264;28;20076;-82
2021/12/21 10:13:06;;;;;;;30.58;18.48;;;0.60;99.90;;;;;;4995343;28;20045;-81
2021/12/21 10:15:38;;;;;;;26.73;18.63;;;0.60;99.90;;;;;;5001748;28;20042;-82
2021/12/21 10:18:04;;;;;;;30.90;18.85;;;0.60;99.90;;;;;;4999102;28;20500;-82
2021/12/21 10:20:47;;;;;;;28.63;18.17;;;0.70;99.90;;;;;;5010716;28;20080;-82
2021/12/21 10:23:15;;;;;;;24.65;17.20;;;0.80;99.90;;;;;;5014444;28;20474;-82
2021/12/21 10:25:47;;;;;;;26.63;17.60;;;0.90;99.90;;;;;;5002510;28;20424;-82
2021/12/21 10:28:25;;;;;;;27.33;16.75;;;1.00;99.90;;;;;;5015075;28;20049;-82
2021/12/21 10:30:52;;;;;;;29.40;17.35;;;1.10;99.90;;;;;;5015445;28;20405;-82
2021/12/21 10:33:20;;;;;;;27.83;16.48;;;1.10;99.90;;;;;;5000073;28;20400;-82
2021/12/21 10:35:46;;;;;;;27.05;15.32;;;1.20;99.90;;;;;;5003513;28;20087;-82
2021/12/21 10:38:11;;;;;;;25.90;16.05;;;1.30;99.90;;;;;;5032195;28;20041;-82
2021/12/21 10:40:39;;;;;;;26.27;13.93;;;1.30;99.90;;;;;;5032127;28;20370;-82
2021/12/21 10:43:09;;;;;;;22.75;15.02;;;1.40;99.90;;;;;;5002454;28;20079;-82
2021/12/21 10:45:38;;;;;;;23.50;13.73;;;1.40;99.90;;;;;;5017423;28;20034;-82
2021/12/21 10:48:06;;;;;;;24.05;13.82;;;1.50;99.90;;;;;;5016745;28;20163;-82
2021/12/21 10:50:34;;;;;;;20.17;12.60;;;1.40;99.90;;;;;;5022474;28;20033;-82
2021/12/21 10:53:01;;;;;;;17.17;11.30;;;1.50;99.90;;;;;;5001552;28;20045;-82
2021/12/21 10:55:34;;;;;;;21.05;11.73;;;1.60;99.90;;;;;;5024856;28;20034;-82
2021/12/21 10:58:18;;;;;;;16.80;11.63;;;1.60;99.90;;;;;;5016950;28;20124;-81
2021/12/21 11:00:59;;;;;;;19.10;11.13;;;1.60;99.90;;;;;;5003740;28;20654;-82
2021/12/21 11:03:38;;;;;;;17.33;9.13;;;1.60;99.90;;;;;;5036271;28;20567;-82
2021/12/21 11:06:16;;;;;;;16.42;9.13;;;1.50;99.90;;;;;;5009939;28;20045;-82
2021/12/21 11:08:45;;;;;;;14.73;9.02;;;1.50;99.90;;;;;;5002537;28;20041;-82
2021/12/21 11:11:22;;;;;;;14.52;8.20;;;1.60;99.90;;;;;;5019529;28;20049;-82
2021/12/21 11:14:08;;;;;;;16.55;8.05;;;1.60;99.90;;;;;;5001472;28;20041;-82
2021/12/21 11:17:02;;;;;;;11.45;7.22;;;1.60;99.90;;;;;;5005851;28;20378;-82
2021/12/21 11:19:27;;;;;;;13.10;7.97;;;1.70;99.90;;;;;;5021813;28;20362;-82
2021/12/21 11:21:55;;;;;;;12.60;7.63;;;1.70;99.90;;;;;;5002379;28;20041;-82
2021/12/21 11:24:22;;;;;;;18.73;10.77;;;1.70;99.90;;;;;;5018155;28;20199;-82
2021/12/21 11:26:48;;;;;;;14.07;8.40;;;1.70;99.90;;;;;;5013739;28;20489;-82
2021/12/21 11:29:18;;;;;;;11.23;7.68;;;1.70;99.90;;;;;;5018623;28;20038;-82
2021/12/21 11:31:51;;;;;;;11.23;7.00;;;1.80;99.90;;;;;;5014476;28;20045;-82
2021/12/21 11:34:21;;;;;;;11.93;7.25;;;1.80;99.90;;;;;;5005166;28;20131;-82
2021/12/21 11:39:39;;;;;;;12.77;5.88;;;2.00;99.90;;;;;;5037156;28;20513;-82
2021/12/21 11:42:08;;;;;;;11.57;6.25;;;1.90;99.90;;;;;;5016547;28;20079;-82
2021/12/21 11:44:56;;;;;;;10.63;5.97;;;2.00;99.90;;;;;;5014867;28;20049;-82
2021/12/21 11:47:37;;;;;;;11.18;5.93;;;2.10;99.90;;;;;;5015715;28;20081;-82
2021/12/21 11:50:07;;;;;;;10.18;5.93;;;2.10;99.90;;;;;;5017838;28;20041;-81
2021/12/21 11:52:43;;;;;;;11.35;5.82;;;2.20;99.90;;;;;;5016249;28;20227;-83
2021/12/21 11:55:17;;;;;;;9.15;5.38;;;2.30;99.90;;;;;;5014182;28;20037;-82
2021/12/21 11:57:52;;;;;;;11.10;5.07;;;2.30;99.90;;;;;;5018996;28;20441;-82
2021/12/21 12:00:28;;;;;;;9.85;5.18;;;2.40;99.90;;;;;;5017341;28;20412;-82
2021/12/21 12:03:13;;;;;;;10.10;5.70;;;2.40;99.90;;;;;;5014900;28;20033;-82
2021/12/21 12:05:52;;;;;;;10.15;5.38;;;2.40;99.90;;;;;;5001906;28;20053;-82
2021/12/21 12:08:18;;;;;;;8.30;5.65;;;2.40;99.90;;;;;;5002173;28;20052;-83
2021/12/21 12:10:54;;;;;;;9.05;5.80;;;2.40;99.90;;;;;;5002652;28;20393;-82
2021/12/21 12:13:43;;;;;;;9.77;5.35;;;2.50;99.90;;;;;;5025167;28;20167;-83
2021/12/21 12:16:15;;;;;;;11.88;5.80;;;2.50;99.90;;;;;;5018251;28;20108;-82
2021/12/21 12:18:47;;;;;;;14.82;6.35;;;2.60;99.90;;;;;;5018555;28;20445;-82
2021/12/21 12:21:25;;;;;;;11.38;6.53;;;2.60;99.90;;;;;;5018136;28;20345;-82
2021/12/21 12:23:58;;;;;;;9.93;5.85;;;2.60;99.90;;;;;;5031501;28;20041;-82
2021/12/21 12:26:33;;;;;;;10.07;5.25;;;2.60;99.90;;;;;;5022450;28;20042;-83
2021/12/21 12:29:18;;;;;;;10.50;5.70;;;2.70;99.90;;;;;;5015924;28;20040;-82
2021/12/21 12:31:56;;;;;;;12.48;6.13;;;2.60;99.90;;;;;;5010486;28;20150;-83
2021/12/21 12:34:29;;;;;;;10.02;5.85;;;2.70;99.90;;;;;;5016505;28;20408;-82
2021/12/21 12:36:55;;;;;;;12.80;5.68;;;2.70;99.90;;;;;;5012985;28;20210;-82
2021/12/21 12:39:39;;;;;;;9.32;6.10;;;2.70;99.90;;;;;;5007585;28;20538;-83
2021/12/21 12:42:08;;;;;;;10.63;5.57;;;2.80;99.90;;;;;;5014418;28;20056;-82
2021/12/21 12:44:36;;;;;;;10.85;5.85;;;2.80;99.90;;;;;;5017372;28;20076;-82
2021/12/21 12:47:06;;;;;;;10.10;5.70;;;2.90;99.90;;;;;;5015857;28;20072;-81
2021/12/21 12:49:40;;;;;;;13.75;6.68;;;2.90;99.90;;;;;;5002920;28;20084;-82
2021/12/21 12:52:28;;;;;;;9.93;6.43;;;2.90;99.90;;;;;;5020241;28;20087;-82
2021/12/21 12:55:03;;;;;;;12.25;5.88;;;2.90;99.90;;;;;;4996961;28;20397;-83
2021/12/21 12:57:31;;;;;;;8.60;6.25;;;2.90;99.90;;;;;;5014162;28;20053;-82
2021/12/21 13:00:11;;;;;;;10.00;5.90;;;2.90;99.90;;;;;;5010110;28;20384;-82
2021/12/21 13:02:37;;;;;;;12.20;6.80;;;3.00;99.90;;;;;;5017831;28;20132;-82
2021/12/21 13:05:08;;;;;;;10.00;5.97;;;3.00;99.90;;;;;;4998593;28;20045;-81
2021/12/21 13:07:35;;;;;;;15.57;6.32;;;2.90;99.90;;;;;;5013217;28;20565;-82
2021/12/21 13:10:06;;;;;;;12.73;6.00;;;3.00;99.90;;;;;;5015892;28;20048;-82
2021/12/21 13:12:32;;;;;;;9.57;5.57;;;3.00;99.90;;;;;;5016082;28;20038;-83
2021/12/21 13:14:58;;;;;;;10.57;5.93;;;3.00;99.90;;;;;;5031385;28;20061;-82
2021/12/21 13:17:23;;;;;;;11.10;6.30;;;3.00;99.90;;;;;;5034142;28;20050;-82
2021/12/21 13:19:49;;;;;;;9.80;5.65;;;3.10;99.90;;;;;;4988899;28;20034;-82
2021/12/21 13:22:24;;;;;;;12.10;6.38;;;3.10;99.90;;;;;;5011028;28;20434;-82
2021/12/21 13:24:52;;;;;;;9.98;5.53;;;3.10;99.90;;;;;;4996191;28;20363;-82
2021/12/21 13:27:20;;;;;;;13.57;5.95;;;3.20;99.90;;;;;;5000131;28;20044;-83
2021/12/21 13:29:47;;;;;;;8.05;5.85;;;3.20;99.90;;;;;;5017795;28;20061;-82
2021/12/21 13:32:18;;;;;;;9.52;6.13;;;3.40;99.90;;;;;;5001608;28;20044;-82
2021/12/21 13:34:46;;;;;;;11.40;6.30;;;3.80;99.90;;;;;;5016323;28;20056;-82
2021/12/21 13:37:18;;;;;;;10.73;5.60;;;3.90;99.90;;;;;;5010187;28;20148;-83
2021/12/21 13:39:46;;;;;;;9.40;5.75;;;4.10;99.90;;;;;;5012843;28;20045;-83